Pagrindinis puslapis
METAR-TAF:

METAR-TAF

Oro uostai :

Ilorin, Nigerija

platuma: 08-29N, ilguma: 004-35E, Aukštis: 308 m

Dabartinis oras

Ataskaita buvo paskelbta 1 valandą ir 23 minutes, ne 17:00 UTC
Vėjas 3 kt iš Šiaurės Rytų
Temperatūra 38°C
Drėgmė 33%
Slėgis 1005 hPa
Matomumas 10 km arba daugiau
Mažai debesys ne aukštis 1500 ft

METAR: DNIL 291700Z 05003KT 9999 FEW015 38/19 Q1005

Laikas: 19:23 (18:23 UTC)

Prognozė

Ataskaita buvo paskelbta 7 valandos ir 23 minutes, ne 11:00 UTC
Prognozė galioja nuo 29 metu 12 UTC su 01 metu 18 UTC
Vėjas 13 kt iš Pietų/Pietvakarių
Matomumas 10 km arba daugiau
Išsisklaidę debesys ne aukštis 1300 ft
Laikinai
nuo 29 metu 15 UTC su 29 metu 21 UTC
Mažai debesys ne aukštis 1500 ft
Mažai debesys ne aukštis 2000 ft, Liūtiniai kamuoliniai debesys.
perkūnija
Tapsmas
nuo 29 metu 21 UTC su 29 metu 23 UTC
Matomumas 10 km arba daugiau
nėra debesų žemiau 1500 m ir nėra kamuolinių lietaus debesų

TAF: DNIL 291100Z 2912/0118 21013KT 9999 SCT013 TEMPO 2915/2921 TS FEW015 FEW020CB BECMG 2921/2923 CAVOK

Orai ataskaitas ir orų prognozės (METAR, TAF).

turimą stotys yra geltonos ir raudonos taškus žemėlapyje.

Perkelti pele per norėdami pamatyti stoties vardą.

Tada spustelėkite, norėdami matyti oro stebėjimo ir prognozės.

Norėdami pakeisti žemėlapį: spustelėkite ant žalios mygtukų su juodo kryžiaus žemyn,; žalią mygtuką su brūkšneliu, jei norite nutolinti; arba žalių rodyklių gretimoms žemėlapius.


METAR-TAF: